Urb Gran Vista I, Puerto Rico
Current Conditions -  °F | °C
As of 1:56 AM on Tuesday 27 Jan 2015 (Local Time) from TJSJ Reporting Station
Few Clouds Few Clouds  
Wind Chill: 75°   Ceiling: Unl
Heat Index: 75°   Visibility: 10mi
Dew Point: 71°   Wind: 5mph
Humidity: 87%   Direction: 70°ENE
Pressure: 29.99"   Gusts: NA
Location:  18.2551°N, 65.9776°W
Report Text: TJSJ 270556Z 07004KT 10SM FEW065 24/22 A2999 RMK AO2 SLP153 T02390217 10261 20239 58014
Loading
Personal Weather Stations






























Interactive Weather Map New forecast layout! Learn more

10-Day Weather Forecast

Advertisements
Track Severe Weather on mobile